Skip to main content Skip to accessibility
This website is not compatible with your web browser. You should install a newer browser. If you live in Jersey and need help upgrading call the States of Jersey web team on 440099.
gov.je

L'înformâtion et les sèrvices publyis pouor I'Île dé Jèrri

Local METARs

METAR EGJJ 291020Z 18014KT 9999 FEW018 SCT039 12/08 Q1024 NOSIG

METAR EGJB 291020Z 17012KT 9999 SCT018 BKN028 11/09 Q1024

METAR EGJA 291020Z 18014KT 9999 BKN047 11/09 Q1023

METAR LFRD 291030Z AUTO 20014KT 9999 FEW042 SCT062 18/08 Q1025 TEMPO 20015G25KT

METAR LFRC 291030Z AUTO 20015KT 9999 BKN040 BKN078 15/08 Q1024 TEMPO 20015G25KT BKN014

 

 

 

​Times are in Greenwich Mean Time (GMT) and not British Summer Time (BST). They will be one hour different during BST.

Back to top
rating button